Kimble County Airport
KJCT : now visible

Airfield :











YOU CAN JOIN US ON...

 
LOGIN :

Register | Disclaimer

   EN    FR    IT 

 









Legend :    VFR   Marginal VFR   IFR   Intensive IFR   Very Intensive IFR
Visi :
Ceiling :
>= 8 km
>= 3000ft
5 to 8 km
1000 to 3000 ft
1500m to 5 km
500 to 1000 ft
800 to 1500m
200 to 500 ft
< 800m
< 200 ft
Symbols :   Thunderstorms  Fog  Heavy snow  Heavy precipitations  Wind > 20 kt






- Airport Elevation : 1749 ft


KJCT - Kimble County

CURRENT METAR :
  • 172108Z AUTO 07005KT 2 1/2SM -RA BR FEW004 BKN015 OVC090 08/07 A3010 RMK AO2 P0008 T00780072

EXPIRED METARs :
  • 172051Z AUTO 00000KT 3/4SM +RA BR BKN016 OVC027 08/07 A3012 RMK AO2 SLP189 P0030 60064 T00780067 55015
  • 172034Z AUTO 00000KT 1 3/4SM RA BR OVC017 07/07 A3013 RMK AO2 P0020 T00720067
  • 172026Z AUTO 11005KT 3SM -RA BR OVC017 07/07 A3013 RMK AO2 P0019 T00720067
  • 172020Z AUTO 11003KT 1 1/2SM RA BR FEW006 OVC017 07/07 A3013 RMK AO2 P0018 T00720067
  • 171959Z AUTO 10003KT 1SM +RA BR SCT013 OVC021 07/06 A3014 RMK AO2 P0010 T00720061
  • 171945Z AUTO 00000KT 3/4SM -RA BR FEW009 OVC013 07/06 A3016 RMK AO2 RAE1858B03 P0012
  • 171926Z AUTO 30006KT 3/4SM +RA BR BKN008 OVC013 07/06 A3017 RMK AO2 RAE1858B03 P0010 T00670056
  • 171917Z AUTO 1 1/4SM RA BR OVC006 07/06 A3019 RMK AO2 RAE1858B03 P0005 T00670056
  • 171909Z AUTO 26009KT 3/4SM RA BR OVC006 07/06 A3019 RMK AO2 RAE1858B03 P0003 T00670056
  • 171902Z AUTO 00000KT 2SM BR OVC006 07/06 A3017 RMK AO2 RAE1858 P0000 T00670056
  • 171851Z AUTO 00000KT 5SM -RA BR BKN008 OVC012 07/06 A3017 RMK AO2 RAB1754 SLP204 P0017 T00670056
  • 171837Z AUTO 00000KT 1 3/4SM RA BR BKN008 OVC036 07/06 A3017 RMK AO2 VIS 1 1/4V2 1/2 RAB1754 PRESFR P0015 T00670056
  • 171830Z AUTO 00000KT 3/4SM +RA BR BKN006 BKN011 OVC034 07/05 A3019 RMK AO2 RAB1754 P0012 T00670050

TAF KJCT
Valid from the 17 at 21:00 until the 18 at 18:00 UTC


172051Z 1721/1818 16005KT 2SM RA BR OVC015
FM180000 21003KT P6SM OVC007
FM181400 36004KT 5SM BR OVC015
FM181600 03011G16KT P6SM SCT100



MET'MAP, your aeronautical weather chart ! - Copyright ORBIFLY December 2007 - Disclaimer

ORBIFLY MET'MAP TEAM :

Programming & Development : Alexandra Zaïnal
Concept & original design : Baudouin d'Aumeries
Assistance for programming : Marc-Olivier Méhu
Technical & hardware support : Manuel Goepfert

Contact : metmap@orbifly.com




SOURCES & CREDITS :

   NOAA       Earth
Advisory